Time;durP1;ratioP1;P1;durP2;ratioP2;P2;SDS_P1;SDS_P2;PMS_P1;PMS_P2;Temp;Humidity;BMP_temperature;BMP_pressure;BME280_temperature;BME280_humidity;BME280_pressure;Samples;Min_cycle;Max_cycle;Signal;HPM_P1;HPM_P2
2022/12/04 00:01:20;;;;;;;180.00;77.97;;;1.60;72.50;;;;;;4970943;28;114825;-79
2022/12/04 00:03:47;;;;;;;174.82;76.70;;;1.70;72.50;;;;;;4970791;28;115623;-79
2022/12/04 00:06:16;;;;;;;181.20;74.00;;;1.60;72.50;;;;;;4964829;28;114642;-80
2022/12/04 00:08:44;;;;;;;172.15;73.07;;;1.60;72.60;;;;;;4966306;28;114768;-79
2022/12/04 00:11:13;;;;;;;165.85;70.07;;;1.60;72.60;;;;;;4968415;28;114565;-79
2022/12/04 00:13:40;;;;;;;174.50;76.28;;;1.60;72.70;;;;;;4945341;28;115010;-79
2022/12/04 00:16:10;;;;;;;155.57;70.43;;;1.70;72.60;;;;;;4971119;28;114650;-78
2022/12/04 00:18:37;;;;;;;171.13;75.65;;;1.70;72.60;;;;;;4965695;28;114336;-78
2022/12/04 00:21:12;;;;;;;176.63;74.68;;;1.70;72.60;;;;;;4968104;28;114443;-79
2022/12/04 00:23:39;;;;;;;;;;;1.70;72.60;;;;;;4972938;28;115184;-79
2022/12/04 00:26:09;;;;;;;169.20;69.63;;;1.60;72.60;;;;;;4964427;28;116565;-79
2022/12/04 00:28:37;;;;;;;162.10;72.05;;;1.60;72.90;;;;;;4970940;28;114431;-78
2022/12/04 00:31:09;;;;;;;182.50;75.25;;;1.60;72.80;;;;;;4969660;28;114824;-79
2022/12/04 00:33:36;;;;;;;175.10;76.03;;;1.60;72.70;;;;;;4963499;28;115645;-78
2022/12/04 00:36:13;;;;;;;179.63;79.60;;;1.60;72.60;;;;;;4971158;28;114670;-80
2022/12/04 00:38:50;;;;;;;170.25;76.88;;;1.50;72.80;;;;;;4901764;28;115780;-79
2022/12/04 00:41:23;;;;;;;176.10;73.75;;;1.50;73.00;;;;;;4946128;28;114659;-79
2022/12/04 00:43:51;;;;;;;156.55;73.03;;;1.50;73.00;;;;;;4963996;28;115194;-78
2022/12/04 00:46:18;;;;;;;173.95;75.03;;;1.60;72.90;;;;;;4947580;28;114833;-78
2022/12/04 00:48:45;;;;;;;167.43;71.50;;;1.60;72.80;;;;;;4965762;28;119756;-78
2022/12/04 00:51:20;;;;;;;179.60;77.38;;;1.70;72.80;;;;;;4965874;28;115927;-78
2022/12/04 00:53:47;;;;;;;167.50;73.03;;;1.60;72.70;;;;;;4964318;28;115614;-79
2022/12/04 00:56:18;;;;;;;159.77;70.97;;;1.70;72.60;;;;;;4947945;28;114662;-78
2022/12/04 00:58:54;;;;;;;163.02;70.57;;;1.70;72.60;;;;;;4952129;28;118379;-78
2022/12/04 01:01:21;;;;;;;153.52;68.32;;;1.70;72.60;;;;;;4948229;28;114813;-79
2022/12/04 01:03:49;;;;;;;164.95;71.55;;;1.60;72.50;;;;;;4964623;28;115656;-77
2022/12/04 01:06:18;;;;;;;162.57;70.53;;;1.70;72.50;;;;;;4966432;28;114786;-80
2022/12/04 01:08:46;;;;;;;152.35;65.43;;;1.60;72.40;;;;;;4967380;28;114825;-78
2022/12/04 01:11:13;;;;;;;155.55;64.45;;;1.50;72.50;;;;;;4930649;28;115699;-78
2022/12/04 01:13:40;;;;;;;161.07;70.60;;;1.50;72.70;;;;;;4963146;28;115166;-78
2022/12/04 01:16:08;;;;;;;157.30;70.25;;;1.50;72.70;;;;;;4968625;28;114787;-79
2022/12/04 01:18:35;;;;;;;164.90;70.90;;;1.50;72.70;;;;;;4979242;28;114412;-78
2022/12/04 01:21:02;;;;;;;155.93;70.10;;;1.50;72.90;;;;;;4970864;28;114538;-79
2022/12/04 01:23:29;;;;;;;157.57;67.03;;;1.50;72.90;;;;;;4968919;28;115050;-79
2022/12/04 01:25:57;;;;;;;168.73;71.57;;;1.60;72.80;;;;;;4961359;28;114689;-79
2022/12/04 01:28:24;;;;;;;144.65;63.25;;;1.60;72.80;;;;;;4968244;28;114366;-79
2022/12/04 01:31:01;;;;;;;160.48;66.53;;;1.50;72.80;;;;;;4933793;28;114332;-79
2022/12/04 01:33:28;;;;;;;168.98;71.25;;;1.60;72.80;;;;;;4956983;28;115227;-78
2022/12/04 01:35:57;;;;;;;148.98;69.35;;;1.60;72.70;;;;;;4966174;28;114752;-78
2022/12/04 01:38:24;;;;;;;158.10;68.53;;;1.60;72.70;;;;;;4961853;28;114455;-78
2022/12/04 01:40:52;;;;;;;154.00;66.65;;;1.60;72.80;;;;;;4970126;28;114460;-77
2022/12/04 01:43:19;;;;;;;158.82;70.40;;;1.60;72.80;;;;;;4964162;28;115095;-77
2022/12/04 01:45:52;;;;;;;150.35;68.47;;;1.60;72.80;;;;;;4966295;28;115476;-77
2022/12/04 01:48:30;;;;;;;145.15;63.33;;;1.60;72.80;;;;;;4944814;28;114823;-78
2022/12/04 01:51:26;;;;;;;165.52;70.18;;;1.60;72.70;;;;;;4966562;28;114332;-78
2022/12/04 01:53:57;;;;;;;156.50;68.72;;;1.70;72.80;;;;;;4947087;28;114699;-78
2022/12/04 01:56:30;;;;;;;146.73;66.00;;;1.60;72.80;;;;;;4950880;28;114697;-78
2022/12/04 01:58:58;;;;;;;165.98;74.57;;;1.50;72.80;;;;;;4971487;28;114823;-78
2022/12/04 02:01:26;;;;;;;160.05;70.68;;;1.50;72.80;;;;;;4968090;28;114684;-78
2022/12/04 02:03:53;;;;;;;164.00;70.00;;;1.40;72.90;;;;;;4971437;28;115308;-79
2022/12/04 02:06:20;;;;;;;157.93;69.55;;;1.40;73.00;;;;;;4954115;28;114565;-78
2022/12/04 02:08:47;;;;;;;165.88;71.88;;;1.40;72.90;;;;;;4984967;28;114458;-78
2022/12/04 02:11:27;;;;;;;148.20;64.00;;;1.40;72.90;;;;;;4970770;28;114522;-78
2022/12/04 02:14:19;;;;;;;161.30;67.13;;;1.40;72.70;;;;;;4966572;28;115266;-80
2022/12/04 02:16:56;;;;;;;145.02;65.18;;;1.30;73.10;;;;;;4940916;28;117411;-79
2022/12/04 02:19:53;;;;;;;149.48;64.43;;;1.30;73.00;;;;;;4970971;28;118362;-79
2022/12/04 02:22:55;;;;;;;147.52;63.28;;;1.30;73.00;;;;;;4971324;28;114697;-79
2022/12/04 02:25:38;;;;;;;141.70;61.10;;;1.30;72.90;;;;;;4966328;28;115163;-78
2022/12/04 02:28:39;;;;;;;136.40;60.58;;;1.30;72.90;;;;;;4974726;28;115393;-79
2022/12/04 02:31:08;;;;;;;146.52;62.92;;;1.20;72.90;;;;;;4951180;28;114755;-79
2022/12/04 02:33:51;;;;;;;143.40;61.97;;;1.20;72.90;;;;;;4975019;28;114473;-79
2022/12/04 02:36:24;;;;;;;147.38;63.58;;;1.20;72.90;;;;;;4950428;28;114970;-79
2022/12/04 02:39:11;;;;;;;148.15;62.28;;;1.20;72.90;;;;;;4950479;28;115263;-80
2022/12/04 02:41:47;;;;;;;139.02;61.13;;;1.20;73.10;;;;;;4965470;28;114424;-79
2022/12/04 02:44:30;;;;;;;156.73;64.32;;;1.20;73.00;;;;;;4967456;28;115845;-80
2022/12/04 02:47:03;;;;;;;141.48;59.65;;;1.10;73.00;;;;;;4944713;28;115307;-80
2022/12/04 02:49:37;;;;;;;134.23;58.13;;;1.10;73.10;;;;;;4949566;28;114751;-80
2022/12/04 02:52:11;;;;;;;140.88;59.15;;;1.10;73.10;;;;;;4955216;28;116289;-78
2022/12/04 02:54:41;;;;;;;139.95;61.60;;;1.10;73.20;;;;;;4966432;28;114649;-79
2022/12/04 02:57:14;;;;;;;136.73;62.50;;;1.00;73.30;;;;;;4947065;28;115405;-80
2022/12/04 02:59:42;;;;;;;136.73;60.92;;;1.10;73.40;;;;;;4949886;28;114691;-78
2022/12/04 03:02:29;;;;;;;131.13;59.03;;;1.10;73.30;;;;;;4950617;28;114526;-79
2022/12/04 03:04:57;;;;;;;141.20;59.47;;;1.20;73.40;;;;;;4934898;28;114658;-79
2022/12/04 03:07:34;;;;;;;136.35;58.30;;;1.20;73.40;;;;;;4931878;28;115484;-80
2022/12/04 03:10:09;;;;;;;134.70;57.35;;;1.20;73.40;;;;;;4963699;28;114772;-78
2022/12/04 03:12:51;;;;;;;130.98;56.85;;;1.30;73.30;;;;;;4929927;28;114600;-78
2022/12/04 03:16:17;;;;;;;142.57;58.65;;;1.30;73.20;;;;;;4950773;28;114461;-79
2022/12/04 03:18:58;;;;;;;123.95;56.08;;;1.30;73.20;;;;;;4952869;28;116009;-80
2022/12/04 03:21:28;;;;;;;129.65;56.40;;;1.30;73.20;;;;;;4938312;28;116336;-79
2022/12/04 03:24:38;;;;;;;134.05;58.63;;;1.30;73.20;;;;;;4952234;28;114421;-80
2022/12/04 03:27:32;;;;;;;128.27;54.25;;;1.30;73.20;;;;;;4973813;28;114355;-80
2022/12/04 03:30:07;;;;;;;127.10;55.90;;;1.30;73.20;;;;;;4968566;28;115252;-79
2022/12/04 03:33:00;;;;;;;141.57;60.67;;;1.20;73.20;;;;;;4967905;28;114792;-80
2022/12/04 03:35:28;;;;;;;134.77;58.53;;;1.30;73.10;;;;;;4951435;28;114365;-79
2022/12/04 03:38:16;;;;;;;125.47;58.72;;;1.30;73.10;;;;;;4973184;28;114227;-79
2022/12/04 03:40:47;;;;;;;142.32;59.80;;;1.30;73.00;;;;;;4965634;28;115840;-79
2022/12/04 03:43:19;;;;;;;138.23;59.58;;;1.20;73.00;;;;;;4970966;28;114784;-78
2022/12/04 03:46:14;;;;;;;131.18;57.50;;;1.20;73.00;;;;;;4949098;28;114454;-79
2022/12/04 03:48:54;;;;;;;123.47;56.22;;;1.20;73.10;;;;;;4946765;28;114415;-79
2022/12/04 03:51:34;;;;;;;136.23;57.72;;;1.10;73.10;;;;;;4955135;28;116323;-79
2022/12/04 03:54:15;;;;;;;123.78;55.97;;;1.10;73.20;;;;;;4966866;28;114890;-79
2022/12/04 03:56:53;;;;;;;130.23;57.15;;;1.10;73.20;;;;;;4934875;28;114782;-79
2022/12/04 03:59:30;;;;;;;114.00;50.22;;;1.10;73.20;;;;;;4944229;28;114556;-79
2022/12/04 04:01:58;;;;;;;117.57;52.35;;;1.10;73.30;;;;;;4949631;28;115196;-79
2022/12/04 04:04:33;;;;;;;129.45;57.60;;;1.00;73.50;;;;;;4945687;28;114552;-79
2022/12/04 04:07:13;;;;;;;125.75;58.30;;;1.10;73.50;;;;;;4965967;28;114433;-78
2022/12/04 04:09:43;;;;;;;129.13;56.78;;;1.10;73.50;;;;;;4965325;28;114452;-80
2022/12/04 04:12:22;;;;;;;130.98;57.00;;;1.10;73.50;;;;;;4964967;28;116667;-79
2022/12/04 04:26:33;;;;;;;125.32;52.72;;;1.10;73.20;;;;;;4961769;28;114672;-79
2022/12/04 04:29:00;;;;;;;122.32;53.78;;;1.00;73.40;;;;;;4955208;28;114368;-79
2022/12/04 04:31:42;;;;;;;129.65;56.42;;;1.00;73.60;;;;;;4969556;28;114435;-79
2022/12/04 04:34:50;;;;;;;119.03;56.22;;;1.10;73.60;;;;;;4945047;28;115133;-79
2022/12/04 04:37:31;;;;;;;123.38;54.40;;;1.10;73.50;;;;;;4962999;28;114648;-79
2022/12/04 04:40:29;;;;;;;123.85;55.78;;;1.10;73.50;;;;;;4965156;28;115050;-79
2022/12/04 04:43:16;;;;;;;129.77;55.20;;;1.10;73.50;;;;;;4967331;28;114607;-79
2022/12/04 04:45:57;;;;;;;126.07;56.92;;;1.00;73.50;;;;;;4964312;28;115370;-79
2022/12/04 04:48:38;;;;;;;130.35;54.40;;;1.10;73.60;;;;;;4949007;28;114626;-80
2022/12/04 04:51:05;;;;;;;128.57;55.10;;;1.10;73.60;;;;;;4962296;28;114450;-79
2022/12/04 04:53:44;;;;;;;131.63;57.70;;;1.00;73.50;;;;;;4930087;28;114579;-79
2022/12/04 04:56:12;;;;;;;120.85;54.55;;;1.10;73.50;;;;;;4959498;28;115463;-79
2022/12/04 04:58:41;;;;;;;124.18;53.83;;;1.10;73.50;;;;;;4932687;28;115950;-79
2022/12/04 05:01:13;;;;;;;126.35;54.22;;;1.00;73.60;;;;;;4935104;28;114619;-79
2022/12/04 05:03:41;;;;;;;123.82;53.97;;;1.10;73.60;;;;;;4950056;28;114440;-80
2022/12/04 05:06:08;;;;;;;115.47;52.97;;;1.10;73.50;;;;;;4964566;28;116566;-80
2022/12/04 05:08:35;;;;;;;122.50;53.85;;;1.10;73.50;;;;;;4965612;28;114375;-79
2022/12/04 05:11:03;;;;;;;131.60;60.63;;;1.10;73.40;;;;;;4968252;28;114433;-79
2022/12/04 05:13:30;;;;;;;124.32;53.90;;;1.10;73.40;;;;;;4970260;28;114684;-79
2022/12/04 05:16:03;;;;;;;117.40;57.92;;;1.00;73.50;;;;;;4969091;28;116518;-79
2022/12/04 05:18:31;;;;;;;118.50;53.22;;;1.00;73.60;;;;;;4947724;28;117591;-79
2022/12/04 05:20:58;;;;;;;107.75;49.67;;;1.00;73.70;;;;;;4969865;28;114675;-78
2022/12/04 05:23:25;;;;;;;121.55;54.38;;;1.00;73.90;;;;;;4969298;28;114349;-79
2022/12/04 05:25:59;;;;;;;120.40;54.45;;;1.10;73.80;;;;;;4967056;28;115116;-80
2022/12/04 05:28:26;;;;;;;;;;;1.10;73.70;;;;;;4982192;28;114590;-79
2022/12/04 05:30:58;;;;;;;117.05;50.28;;;1.10;73.50;;;;;;4955428;28;114509;-80
2022/12/04 05:33:26;;;;;;;111.55;51.38;;;1.10;73.60;;;;;;4956116;28;114571;-79
2022/12/04 05:36:00;;;;;;;118.72;53.63;;;1.10;73.50;;;;;;4967901;28;115404;-80
2022/12/04 05:38:27;;;;;;;115.60;52.28;;;1.10;73.70;;;;;;4964262;28;114877;-79
2022/12/04 05:40:57;;;;;;;126.78;57.13;;;1.10;73.70;;;;;;4965908;28;114341;-80
2022/12/04 05:43:25;;;;;;;110.70;51.30;;;1.10;73.60;;;;;;4964880;28;114810;-79
2022/12/04 05:45:52;;;;;;;116.00;52.63;;;1.10;73.60;;;;;;4964353;28;116316;-78
2022/12/04 05:48:20;;;;;;;123.70;52.78;;;1.10;73.60;;;;;;4963645;28;114677;-79
2022/12/04 05:50:47;;;;;;;113.78;53.63;;;1.10;73.50;;;;;;4968398;28;116099;-81
2022/12/04 05:53:15;;;;;;;119.10;55.25;;;1.20;73.50;;;;;;4971206;28;114346;-79
2022/12/04 05:55:42;;;;;;;120.53;55.83;;;1.10;73.40;;;;;;4968183;28;114451;-80
2022/12/04 05:58:11;;;;;;;113.63;51.53;;;1.20;73.40;;;;;;4964579;28;115177;-79
2022/12/04 06:00:38;;;;;;;108.22;50.72;;;1.10;73.30;;;;;;4969658;28;114501;-79
2022/12/04 06:03:05;;;;;;;113.00;50.75;;;1.10;73.30;;;;;;4966253;28;114422;-80
2022/12/04 06:05:32;;;;;;;110.82;50.55;;;1.10;73.30;;;;;;4964884;28;116734;-79
2022/12/04 06:07:59;;;;;;;109.13;50.53;;;1.10;73.30;;;;;;4964124;28;114554;-79
2022/12/04 06:10:28;;;;;;;112.65;50.92;;;1.10;73.30;;;;;;4965757;28;114696;-79
2022/12/04 06:12:56;;;;;;;120.35;51.85;;;1.10;73.30;;;;;;4968053;28;114520;-79
2022/12/04 06:15:23;;;;;;;114.20;52.55;;;1.10;73.30;;;;;;4971692;28;117576;-79
2022/12/04 06:17:50;;;;;;;122.40;53.35;;;1.10;73.20;;;;;;4962834;28;115279;-80
2022/12/04 06:20:18;;;;;;;119.50;53.03;;;1.00;73.30;;;;;;4947189;28;114703;-81
2022/12/04 06:22:45;;;;;;;113.03;50.20;;;1.00;73.30;;;;;;4965095;28;114444;-79
2022/12/04 06:25:12;;;;;;;108.88;52.15;;;1.10;73.40;;;;;;4962017;28;116185;-78
2022/12/04 06:27:39;;;;;;;108.55;50.88;;;1.10;73.40;;;;;;4965854;28;114573;-78
2022/12/04 06:30:07;;;;;;;113.22;50.22;;;1.10;73.30;;;;;;4952373;28;114826;-78
2022/12/04 06:32:34;;;;;;;113.15;51.63;;;1.10;73.20;;;;;;4965159;28;114460;-78
2022/12/04 06:35:03;;;;;;;110.43;51.58;;;1.00;73.10;;;;;;4963553;28;115678;-78
2022/12/04 06:37:30;;;;;;;115.38;50.13;;;0.90;73.10;;;;;;4947841;28;115325;-78
2022/12/04 06:39:57;;;;;;;104.10;45.53;;;0.90;73.00;;;;;;4964327;28;114379;-78
2022/12/04 06:42:25;;;;;;;101.32;45.75;;;0.90;73.00;;;;;;4969067;28;115809;-80
2022/12/04 06:44:52;;;;;;;90.88;43.25;;;0.80;73.10;;;;;;4969233;28;115421;-79
2022/12/04 06:47:19;;;;;;;102.05;44.05;;;0.80;73.20;;;;;;4967484;28;114600;-78
2022/12/04 06:49:49;;;;;;;108.65;44.25;;;0.80;73.10;;;;;;4969514;28;114427;-79
2022/12/04 06:52:17;;;;;;;89.78;41.95;;;0.70;73.40;;;;;;4949086;28;114366;-78
2022/12/04 06:54:44;;;;;;;105.90;45.42;;;0.60;73.50;;;;;;4966109;28;115190;-78
2022/12/04 06:57:11;;;;;;;96.63;43.50;;;0.60;73.80;;;;;;4967026;28;114650;-78
2022/12/04 06:59:38;;;;;;;109.22;47.33;;;0.60;74.00;;;;;;4970375;28;114342;-78
2022/12/04 07:02:06;;;;;;;109.85;46.25;;;0.70;74.00;;;;;;4969863;28;114397;-79
2022/12/04 07:04:33;;;;;;;105.00;44.53;;;0.70;73.80;;;;;;4966677;28;115577;-79
2022/12/04 07:07:00;;;;;;;122.15;51.97;;;0.70;73.70;;;;;;4968068;28;115842;-79
2022/12/04 07:09:27;;;;;;;147.10;50.60;;;0.70;73.60;;;;;;4971963;28;114373;-79
2022/12/04 07:11:54;;;;;;;130.00;50.75;;;0.70;73.60;;;;;;4967751;28;114277;-79
2022/12/04 07:14:22;;;;;;;225.25;57.33;;;0.70;73.60;;;;;;4967162;28;115056;-78
2022/12/04 07:16:49;;;;;;;109.45;45.72;;;0.70;73.50;;;;;;4966823;28;114703;-78
2022/12/04 07:19:16;;;;;;;125.15;49.60;;;0.70;73.50;;;;;;4973362;28;114398;-78
2022/12/04 07:21:43;;;;;;;135.88;52.88;;;0.70;73.60;;;;;;4971078;28;114363;-79
2022/12/04 07:24:15;;;;;;;125.43;50.28;;;0.70;73.60;;;;;;4965588;28;115038;-79
2022/12/04 07:26:42;;;;;;;120.82;50.17;;;0.70;73.70;;;;;;4966230;28;114564;-79
2022/12/04 07:29:10;;;;;;;125.70;50.95;;;0.70;73.70;;;;;;4968776;28;114381;-79
2022/12/04 07:31:40;;;;;;;127.38;48.60;;;0.70;73.80;;;;;;4933869;28;114356;-79
2022/12/04 07:34:07;;;;;;;118.78;49.05;;;0.70;73.80;;;;;;4952041;28;118251;-80
2022/12/04 07:36:34;;;;;;;122.65;51.30;;;0.80;73.90;;;;;;4969471;28;114744;-79
2022/12/04 07:39:01;;;;;;;132.10;50.88;;;0.80;73.90;;;;;;4968047;28;114380;-80
2022/12/04 07:41:29;;;;;;;130.70;49.80;;;0.80;73.80;;;;;;4967914;28;115004;-79
2022/12/04 07:43:56;;;;;;;128.32;50.80;;;0.80;73.80;;;;;;4967303;28;118016;-79
2022/12/04 07:46:25;;;;;;;132.68;51.25;;;0.90;73.90;;;;;;4970494;28;114660;-79
2022/12/04 07:48:56;;;;;;;133.98;46.65;;;0.90;74.00;;;;;;4953966;28;114445;-79
2022/12/04 07:51:26;;;;;;;117.72;45.83;;;0.80;74.00;;;;;;4973709;28;115728;-79
2022/12/04 07:53:53;;;;;;;129.85;48.17;;;0.80;74.00;;;;;;4966554;28;115557;-79
2022/12/04 07:56:20;;;;;;;108.65;44.63;;;0.80;74.10;;;;;;4966118;28;114946;-78
2022/12/04 07:58:48;;;;;;;111.72;47.58;;;0.80;74.20;;;;;;4967925;28;114672;-78
2022/12/04 08:01:19;;;;;;;117.88;46.97;;;0.80;74.20;;;;;;4965825;28;114509;-78
2022/12/04 08:03:48;;;;;;;109.05;46.03;;;0.90;74.30;;;;;;4964319;28;115625;-78
2022/12/04 08:06:20;;;;;;;135.40;49.33;;;1.00;74.30;;;;;;4962655;28;115102;-80
2022/12/04 08:08:47;;;;;;;111.38;47.45;;;1.00;74.40;;;;;;4965866;28;114694;-79
2022/12/04 08:11:21;;;;;;;147.88;50.55;;;1.00;74.30;;;;;;4963687;28;114414;-81
2022/12/04 08:13:53;;;;;;;135.87;53.87;;;1.00;74.30;;;;;;4946191;28;115108;-79
2022/12/04 08:16:20;;;;;;;125.22;53.92;;;0.90;74.10;;;;;;4966700;28;115191;-80
2022/12/04 08:18:48;;;;;;;120.90;50.67;;;0.90;74.30;;;;;;4934328;28;114937;-81
2022/12/04 08:21:22;;;;;;;129.15;53.88;;;1.00;74.40;;;;;;4964878;28;117587;-81
2022/12/04 08:23:53;;;;;;;128.32;53.08;;;1.10;74.30;;;;;;4963156;28;115100;-78
2022/12/04 08:26:22;;;;;;;126.30;57.58;;;1.00;74.20;;;;;;4960461;28;115099;-79
2022/12/04 08:28:52;;;;;;;129.27;58.72;;;1.10;74.20;;;;;;4964907;28;115634;-80
2022/12/04 08:31:25;;;;;;;128.30;54.20;;;1.00;74.10;;;;;;4963008;28;114866;-78
2022/12/04 08:33:54;;;;;;;127.90;55.53;;;1.00;74.10;;;;;;4944810;28;115105;-78
2022/12/04 08:36:21;;;;;;;113.78;51.38;;;0.90;74.30;;;;;;4946121;28;117674;-78
2022/12/04 08:38:51;;;;;;;136.82;59.13;;;0.80;74.50;;;;;;4967912;28;114673;-79
2022/12/04 08:41:22;;;;;;;130.48;53.67;;;0.90;75.10;;;;;;4965203;28;114841;-78
2022/12/04 08:43:53;;;;;;;109.43;47.15;;;1.00;75.20;;;;;;4978352;28;114634;-80
2022/12/04 08:46:21;;;;;;;116.28;51.20;;;1.00;75.00;;;;;;4974478;28;115346;-82
2022/12/04 08:48:48;;;;;;;109.70;48.13;;;1.00;75.00;;;;;;4963673;28;115846;-80
2022/12/04 08:51:21;;;;;;;111.55;48.58;;;1.10;75.10;;;;;;4972249;28;115206;-80
2022/12/04 08:53:59;;;;;;;110.55;48.78;;;1.20;75.10;;;;;;4979226;28;115358;-79
2022/12/04 08:56:37;;;;;;;87.28;40.58;;;1.20;75.10;;;;;;4966115;28;118804;-79
2022/12/04 08:59:09;;;;;;;94.15;41.58;;;1.30;75.00;;;;;;4965036;28;117903;-80
2022/12/04 09:01:36;;;;;;;101.88;43.50;;;1.40;74.90;;;;;;4934148;28;114627;-80
2022/12/04 09:04:04;;;;;;;99.53;44.03;;;1.50;75.00;;;;;;4961787;28;115658;-78
2022/12/04 09:06:34;;;;;;;114.47;47.95;;;1.50;74.90;;;;;;4964100;28;114635;-80
2022/12/04 09:09:01;;;;;;;104.38;49.40;;;1.60;74.80;;;;;;4916180;28;114474;-80
2022/12/04 09:11:31;;;;;;;110.43;51.28;;;1.70;74.60;;;;;;4959137;28;114774;-80
2022/12/04 09:14:00;;;;;;;112.68;50.33;;;1.80;74.40;;;;;;4978720;28;115099;-80
2022/12/04 09:16:35;;;;;;;113.40;50.15;;;1.90;74.20;;;;;;4962828;28;114780;-80
2022/12/04 09:19:02;;;;;;;114.10;50.58;;;2.00;74.10;;;;;;4964439;28;114506;-79
2022/12/04 09:21:29;;;;;;;124.38;51.45;;;2.00;74.00;;;;;;4962870;28;114840;-78
2022/12/04 09:23:58;;;;;;;123.85;52.92;;;2.20;74.00;;;;;;4964188;28;115161;-80
2022/12/04 09:26:30;;;;;;;116.22;50.50;;;2.10;73.90;;;;;;4962881;28;115730;-80
2022/12/04 09:28:59;;;;;;;108.20;50.25;;;2.30;73.90;;;;;;4965111;28;114337;-81
2022/12/04 09:31:26;;;;;;;119.82;50.75;;;2.40;73.80;;;;;;4964427;28;115540;-80
2022/12/04 09:33:53;;;;;;;114.13;52.00;;;2.40;73.70;;;;;;4964917;28;115148;-79
2022/12/04 09:36:20;;;;;;;114.78;52.58;;;2.50;73.50;;;;;;4962967;28;115412;-79
2022/12/04 09:38:50;;;;;;;112.82;51.13;;;2.60;73.40;;;;;;4964242;28;114718;-80
2022/12/04 09:41:35;;;;;;;110.55;50.83;;;2.60;73.40;;;;;;4948841;28;114271;-79
2022/12/04 09:44:22;;;;;;;104.00;50.10;;;2.70;73.20;;;;;;4964963;28;115189;-79
2022/12/04 09:47:03;;;;;;;111.35;50.38;;;2.80;73.30;;;;;;4964817;28;114683;-79
2022/12/04 09:50:03;;;;;;;123.88;53.13;;;2.90;73.10;;;;;;4948884;28;114333;-79
2022/12/04 09:53:22;;;;;;;120.07;52.45;;;2.90;72.90;;;;;;4964153;28;114638;-80
2022/12/04 09:56:03;;;;;;;129.63;54.15;;;3.00;72.90;;;;;;4963904;28;115089;-79
2022/12/04 09:58:53;;;;;;;115.03;52.67;;;3.00;72.90;;;;;;4979798;28;114778;-79
2022/12/04 10:01:24;;;;;;;113.22;52.13;;;3.00;72.70;;;;;;4948350;28;114339;-80
2022/12/04 10:03:52;;;;;;;111.70;51.05;;;3.00;72.80;;;;;;4944870;28;114431;-79
2022/12/04 10:06:26;;;;;;;124.72;53.05;;;3.10;72.70;;;;;;4927156;28;115202;-77
2022/12/04 10:09:24;;;;;;;125.75;55.58;;;3.10;72.70;;;;;;4939589;28;116840;-78
2022/12/04 10:12:08;;;;;;;124.15;55.70;;;3.10;72.70;;;;;;4968500;28;114314;-79
2022/12/04 10:15:09;;;;;;;;;;;3.10;72.70;;;;;;4965313;28;114382;-80
2022/12/04 10:17:51;;;;;;;125.28;53.42;;;3.00;72.60;;;;;;4967649;28;115641;-80
2022/12/04 10:21:00;;;;;;;118.40;53.55;;;2.90;72.70;;;;;;4951323;28;114994;-80
2022/12/04 10:23:50;;;;;;;118.95;51.88;;;2.90;72.80;;;;;;4958000;28;114406;-79
2022/12/04 10:26:21;;;;;;;103.32;48.22;;;2.90;72.90;;;;;;4967438;28;114881;-80
2022/12/04 10:29:05;;;;;;;119.70;53.63;;;2.90;72.90;;;;;;4966896;28;115091;-79
2022/12/04 10:31:33;;;;;;;118.45;52.70;;;2.90;73.00;;;;;;4968935;28;115938;-79
2022/12/04 10:34:18;;;;;;;107.60;53.00;;;2.90;73.00;;;;;;4951151;28;114729;-79
2022/12/04 10:36:51;;;;;;;112.15;51.92;;;3.00;73.10;;;;;;4951661;28;114705;-81
2022/12/04 10:39:27;;;;;;;120.75;53.80;;;3.00;73.10;;;;;;4967794;28;115690;-79
2022/12/04 10:42:19;;;;;;;119.22;55.65;;;3.00;73.00;;;;;;4933785;28;114661;-79
2022/12/04 10:44:48;;;;;;;110.63;50.35;;;3.00;73.00;;;;;;4983595;28;114780;-80
2022/12/04 10:47:16;;;;;;;110.97;50.88;;;3.00;72.90;;;;;;4966770;28;115006;-79
2022/12/04 10:49:43;;;;;;;114.78;53.45;;;3.10;73.00;;;;;;4930802;28;117580;-80
2022/12/04 10:52:11;;;;;;;116.55;54.55;;;3.10;72.90;;;;;;4967689;28;114722;-80
2022/12/04 10:54:49;;;;;;;109.15;53.22;;;3.10;72.90;;;;;;4967761;28;114262;-81
2022/12/04 10:57:16;;;;;;;110.10;52.30;;;3.10;72.90;;;;;;4903129;28;114485;-80
2022/12/04 10:59:53;;;;;;;111.13;52.47;;;3.20;72.80;;;;;;4968101;28;116590;-80
2022/12/04 11:02:27;;;;;;;99.38;49.85;;;3.20;72.70;;;;;;4935616;28;118206;-78
2022/12/04 11:05:02;;;;;;;108.95;49.25;;;3.30;72.70;;;;;;4966723;28;114644;-79
2022/12/04 11:07:35;;;;;;;113.70;52.45;;;3.30;72.70;;;;;;4966836;28;114491;-79
2022/12/04 11:10:25;;;;;;;105.55;48.78;;;3.40;72.70;;;;;;4950462;28;115199;-79
2022/12/04 11:12:56;;;;;;;105.30;52.05;;;3.40;72.60;;;;;;4959078;28;115276;-79
2022/12/04 11:15:23;;;;;;;113.43;51.78;;;3.50;72.60;;;;;;4978079;28;114869;-79
2022/12/04 11:17:53;;;;;;;100.18;48.72;;;3.40;72.60;;;;;;4969959;28;114603;-79
2022/12/04 11:20:23;;;;;;;106.47;48.95;;;3.50;72.50;;;;;;4968813;28;115150;-80
2022/12/04 11:22:56;;;;;;;109.38;50.10;;;3.40;72.50;;;;;;4968450;28;116258;-80
2022/12/04 11:25:26;;;;;;;104.72;50.13;;;3.50;72.60;;;;;;4984683;28;114392;-80
2022/12/04 11:27:55;;;;;;;113.88;52.50;;;3.50;72.60;;;;;;4966850;28;114519;-79
2022/12/04 11:30:34;;;;;;;105.22;49.95;;;3.60;72.60;;;;;;4984878;28;115159;-80
2022/12/04 11:33:02;;;;;;;106.60;50.28;;;3.60;72.40;;;;;;4968940;28;114704;-80
2022/12/04 11:35:29;;;;;;;101.72;49.22;;;3.60;72.40;;;;;;4966604;28;114690;-80
2022/12/04 11:38:00;;;;;;;97.25;46.65;;;3.60;72.40;;;;;;4947045;28;114244;-80
2022/12/04 11:40:27;;;;;;;101.90;49.28;;;3.70;72.30;;;;;;4965323;28;115173;-79
2022/12/04 11:43:12;;;;;;;101.47;47.20;;;3.70;72.20;;;;;;4947354;28;114614;-79
2022/12/04 11:45:40;;;;;;;98.28;48.55;;;3.70;72.10;;;;;;4975452;28;114577;-79
2022/12/04 11:48:16;;;;;;;91.82;44.90;;;3.70;72.10;;;;;;4969233;28;114682;-79
2022/12/04 11:51:04;;;;;;;95.85;45.10;;;3.80;72.10;;;;;;4976826;28;115232;-79
2022/12/04 11:54:06;;;;;;;94.97;46.50;;;3.80;72.10;;;;;;4966547;28;118000;-80
2022/12/04 11:56:35;;;;;;;103.07;48.75;;;3.80;72.10;;;;;;4986147;28;114602;-80
2022/12/04 11:59:08;;;;;;;101.05;48.53;;;3.80;72.00;;;;;;4950463;28;114557;-80
2022/12/04 12:02:18;;;;;;;109.40;51.90;;;3.70;72.00;;;;;;4965961;28;115121;-80
2022/12/04 12:05:22;;;;;;;105.85;49.03;;;3.70;71.90;;;;;;4977427;28;115515;-80
2022/12/04 12:07:58;;;;;;;109.47;50.25;;;3.70;72.00;;;;;;4969274;28;114831;-80
2022/12/04 12:10:54;;;;;;;115.32;52.85;;;3.70;72.10;;;;;;4987382;28;114460;-80
2022/12/04 12:13:52;;;;;;;105.90;51.28;;;3.70;72.10;;;;;;4968752;28;115215;-79
2022/12/04 12:16:50;;;;;;;118.53;51.83;;;3.70;72.10;;;;;;4965280;28;114958;-79
2022/12/04 12:19:28;;;;;;;120.63;52.22;;;3.70;72.30;;;;;;4953068;28;114449;-80
2022/12/04 12:22:26;;;;;;;113.97;54.60;;;3.60;72.30;;;;;;4967617;28;114486;-79
2022/12/04 12:25:17;;;;;;;121.70;52.15;;;3.60;72.30;;;;;;4966106;28;115663;-80
2022/12/04 12:28:15;;;;;;;111.97;48.22;;;3.60;72.40;;;;;;4964482;28;115206;-81
2022/12/04 12:31:31;;;;;;;109.15;49.80;;;3.50;72.40;;;;;;4965703;28;114305;-80
2022/12/04 12:34:13;;;;;;;118.20;51.00;;;3.40;72.40;;;;;;4946595;28;114673;-80
2022/12/04 12:36:44;;;;;;;117.93;49.80;;;3.40;72.50;;;;;;4961296;28;116361;-80
2022/12/04 12:39:37;;;;;;;119.07;52.20;;;3.40;72.60;;;;;;4956550;28;114630;-80
2022/12/04 12:42:04;;;;;;;116.80;52.00;;;3.40;72.70;;;;;;4931792;28;114531;-80
2022/12/04 12:44:50;;;;;;;119.15;50.30;;;3.30;72.70;;;;;;4965318;28;114632;-80
2022/12/04 12:47:25;;;;;;;122.03;55.00;;;3.40;72.70;;;;;;4947619;28;117293;-80
2022/12/04 12:50:03;;;;;;;129.98;52.13;;;3.30;72.70;;;;;;4947103;28;114692;-79
2022/12/04 12:52:37;;;;;;;115.68;50.45;;;3.30;72.70;;;;;;4946646;28;114456;-80
2022/12/04 12:55:23;;;;;;;116.10;54.35;;;3.20;72.70;;;;;;4966395;28;114469;-80
2022/12/04 12:58:24;;;;;;;129.57;53.47;;;3.20;72.80;;;;;;4964074;28;115131;-80
2022/12/04 13:01:18;;;;;;;125.70;54.92;;;3.20;72.90;;;;;;4932079;28;114908;-79
2022/12/04 13:04:10;;;;;;;136.47;55.67;;;3.20;72.90;;;;;;4964837;28;114935;-80
2022/12/04 13:06:43;;;;;;;129.55;56.00;;;3.20;73.00;;;;;;4965261;28;114629;-79